createdAt,value
2022-12-04T00:00:46.050Z,102568.20
2022-12-04T00:04:45.542Z,102564.73
2022-12-04T00:08:46.179Z,102564.07
2022-12-04T00:12:45.231Z,102564.16
2022-12-04T00:16:44.311Z,102564.86
2022-12-04T00:20:43.830Z,102571.37
2022-12-04T00:24:42.675Z,102574.45
2022-12-04T00:28:42.975Z,102574.11
2022-12-04T00:32:42.275Z,102574.79
2022-12-04T00:36:41.998Z,102573.55
2022-12-04T00:40:48.427Z,102570.80
2022-12-04T00:44:48.697Z,102571.06
2022-12-04T00:48:49.345Z,102564.02
2022-12-04T00:52:48.538Z,102562.91
2022-12-04T00:56:48.159Z,102563.86
2022-12-04T01:00:47.351Z,102562.02
2022-12-04T01:04:46.409Z,102553.70
2022-12-04T01:08:46.044Z,102551.31
2022-12-04T01:12:45.883Z,102550.80
2022-12-04T01:16:46.951Z,102549.27
2022-12-04T01:20:49.125Z,102550.05
2022-12-04T01:24:48.273Z,102542.91
2022-12-04T01:28:47.560Z,102543.43
2022-12-04T01:32:46.919Z,102543.66
2022-12-04T01:36:46.332Z,102543.49
2022-12-04T01:40:45.780Z,102548.91
2022-12-04T01:45:23.798Z,102552.30
2022-12-04T01:49:28.834Z,102547.21
2022-12-04T01:53:30.960Z,102550.98
2022-12-04T01:57:33.061Z,102551.55
2022-12-04T02:01:43.392Z,102548.77
2022-12-04T02:05:42.781Z,102550.80
2022-12-04T02:09:45.591Z,102552.07
2022-12-04T02:13:38.489Z,102549.98
2022-12-04T02:18:15.167Z,102541.89
2022-12-04T02:22:31.880Z,102539.46
2022-12-04T02:26:52.211Z,102540.66
2022-12-04T02:30:59.028Z,102536.44
2022-12-04T02:35:07.032Z,102534.00
2022-12-04T02:39:12.835Z,102532.61
2022-12-04T02:43:24.869Z,102529.14
2022-12-04T02:47:26.587Z,102523.96
2022-12-04T02:51:29.283Z,102523.80
2022-12-04T02:55:38.242Z,102514.86
2022-12-04T02:59:43.609Z,102515.27
2022-12-04T03:03:43.300Z,102517.48
2022-12-04T03:07:51.653Z,102522.11
2022-12-04T03:11:58.618Z,102520.88
2022-12-04T03:16:08.085Z,102517.70
2022-12-04T03:19:44.006Z,102521.59
2022-12-04T03:24:18.077Z,102518.95
2022-12-04T03:28:29.053Z,102524.24
2022-12-04T03:32:36.246Z,102525.77
2022-12-04T03:36:39.869Z,102527.45
2022-12-04T03:40:44.930Z,102526.08
2022-12-04T03:44:49.465Z,102524.77
2022-12-04T03:49:04.751Z,102527.98
2022-12-04T03:53:44.195Z,102523.21
2022-12-04T03:56:52.166Z,102516.36
2022-12-04T04:00:53.618Z,102520.08
2022-12-04T04:04:58.327Z,102514.14
2022-12-04T04:09:05.676Z,102508.43
2022-12-04T04:13:24.288Z,102508.70
2022-12-04T04:17:48.269Z,102504.05
2022-12-04T04:22:09.547Z,102502.70
2022-12-04T04:26:12.077Z,102496.84
2022-12-04T04:30:11.434Z,102498.54
2022-12-04T04:34:25.194Z,102495.33
2022-12-04T04:39:08.875Z,102490.67
2022-12-04T04:43:10.570Z,102490.40
2022-12-04T04:47:17.175Z,102491.65
2022-12-04T04:51:18.018Z,102497.13
2022-12-04T04:55:19.641Z,102494.38
2022-12-04T04:59:19.046Z,102503.11
2022-12-04T05:03:18.018Z,102500.38
2022-12-04T05:07:17.230Z,102502.08
2022-12-04T05:11:17.917Z,102495.02
2022-12-04T05:15:17.570Z,102494.45
2022-12-04T05:19:35.936Z,102495.34
2022-12-04T05:23:35.570Z,102496.61
2022-12-04T05:27:34.901Z,102491.77
2022-12-04T05:31:34.334Z,102493.68
2022-12-04T05:35:33.636Z,102493.44
2022-12-04T05:39:32.982Z,102492.30
2022-12-04T05:43:34.344Z,102497.68
2022-12-04T05:47:39.180Z,102499.45
2022-12-04T05:51:38.629Z,102498.95
2022-12-04T05:55:37.925Z,102492.23
2022-12-04T05:59:37.309Z,102489.98
2022-12-04T06:03:36.784Z,102489.46
2022-12-04T06:07:36.431Z,102486.08
2022-12-04T06:11:38.130Z,102487.30
2022-12-04T06:15:40.632Z,102495.79
2022-12-04T06:19:40.231Z,102497.39
2022-12-04T06:23:39.388Z,102498.41
2022-12-04T06:27:38.950Z,102498.48
2022-12-04T06:31:40.435Z,102502.30
2022-12-04T06:35:39.686Z,102505.05
2022-12-04T06:39:38.776Z,102511.84
2022-12-04T06:43:38.719Z,102512.98
2022-12-04T06:47:37.893Z,102511.15
2022-12-04T06:51:40.168Z,102518.16
2022-12-04T06:55:53.287Z,102518.37
2022-12-04T06:59:52.275Z,102517.55
2022-12-04T07:03:52.247Z,102518.19
2022-12-04T07:07:51.194Z,102518.52
2022-12-04T07:11:50.451Z,102517.48
2022-12-04T07:15:49.250Z,102516.27
2022-12-04T07:19:48.257Z,102513.84
2022-12-04T07:23:56.373Z,102515.22
2022-12-04T07:27:56.671Z,102506.35
2022-12-04T07:31:55.912Z,102512.39
2022-12-04T07:35:57.576Z,102514.58
2022-12-04T07:39:56.727Z,102519.29
2022-12-04T07:43:56.090Z,102518.90
2022-12-04T07:47:55.083Z,102514.15
2022-12-04T07:56:08.938Z,102515.86
2022-12-04T08:00:09.339Z,102516.33
2022-12-04T08:04:11.855Z,102515.80
2022-12-04T08:08:24.659Z,102519.23
2022-12-04T08:12:23.880Z,102527.77
2022-12-04T08:16:24.347Z,102527.05
2022-12-04T08:20:23.660Z,102526.16
2022-12-04T08:24:23.123Z,102525.80
2022-12-04T08:28:22.654Z,102524.79
2022-12-04T08:32:21.570Z,102519.89
2022-12-04T08:36:21.889Z,102521.17
2022-12-04T08:40:35.398Z,102517.77
2022-12-04T08:44:34.894Z,102515.98
2022-12-04T08:48:34.712Z,102515.91
2022-12-04T08:52:34.160Z,102523.70
2022-12-04T08:56:33.948Z,102521.31
2022-12-04T09:00:33.495Z,102519.45
2022-12-04T09:04:34.947Z,102511.08
2022-12-04T09:08:34.813Z,102508.02
2022-12-04T09:12:34.056Z,102496.69
2022-12-04T09:16:34.763Z,102503.84
2022-12-04T09:20:11.530Z,102506.88
2022-12-04T09:24:24.681Z,102507.14
2022-12-04T09:28:24.072Z,102500.46
2022-12-04T09:32:23.350Z,102495.70
2022-12-04T09:36:22.929Z,102489.25
2022-12-04T09:40:41.091Z,102483.13
2022-12-04T09:45:16.867Z,102489.23
2022-12-04T09:48:21.458Z,102494.91
2022-12-04T09:52:43.972Z,102486.41
2022-12-04T09:56:19.915Z,102485.48
2022-12-04T10:00:20.773Z,102490.99
2022-12-04T10:04:20.269Z,102485.13
2022-12-04T10:08:34.850Z,102476.89
2022-12-04T10:13:03.618Z,102473.88
2022-12-04T10:17:02.511Z,102471.19
2022-12-04T10:21:23.887Z,102474.63
2022-12-04T10:25:25.379Z,102475.48
2022-12-04T10:29:36.194Z,102472.34
2022-12-04T10:33:53.206Z,102482.58
2022-12-04T10:38:03.687Z,102476.54
2022-12-04T10:42:31.602Z,102473.77
2022-12-04T10:46:35.831Z,102476.04
2022-12-04T10:50:35.681Z,102471.84
2022-12-04T10:54:40.975Z,102473.08
2022-12-04T10:59:02.896Z,102470.64
2022-12-04T11:02:44.303Z,102464.65
2022-12-04T11:07:21.122Z,102461.33
2022-12-04T11:11:39.561Z,102459.11
2022-12-04T11:15:59.017Z,102460.36
2022-12-04T11:19:32.061Z,102447.90
2022-12-04T11:23:45.413Z,102449.20
2022-12-04T11:27:49.046Z,102446.34
2022-12-04T11:31:52.495Z,102445.90
2022-12-04T11:35:55.749Z,102440.46
2022-12-04T11:39:56.481Z,102437.91
2022-12-04T11:44:00.174Z,102434.20
2022-12-04T11:48:03.985Z,102431.41
2022-12-04T11:52:20.484Z,102431.80
2022-12-04T11:56:29.673Z,102423.48
2022-12-04T12:00:32.915Z,102415.59
2022-12-04T12:05:16.259Z,102413.52
2022-12-04T12:09:18.131Z,102407.95
2022-12-04T12:13:36.414Z,102407.23
2022-12-04T12:17:50.403Z,102403.66
2022-12-04T12:21:19.705Z,102403.99
2022-12-04T12:25:20.925Z,102412.90
2022-12-04T12:30:04.587Z,102414.27
2022-12-04T12:33:46.271Z,102411.56
2022-12-04T12:37:16.211Z,102412.06
2022-12-04T12:40:43.411Z,102409.30
2022-12-04T12:44:50.233Z,102409.38
2022-12-04T12:49:23.507Z,102404.77
2022-12-04T12:53:29.250Z,102404.04
2022-12-04T12:57:44.511Z,102409.77
2022-12-04T13:01:53.738Z,102409.34
2022-12-04T13:06:04.173Z,102408.43
2022-12-04T13:10:13.827Z,102417.02
2022-12-04T13:18:44.164Z,102422.19
2022-12-04T13:23:20.337Z,102415.71
2022-12-04T13:27:51.140Z,102413.95
2022-12-04T13:32:06.413Z,102419.02
2022-12-04T13:36:25.122Z,102417.54
2022-12-04T13:41:00.255Z,102417.33
2022-12-04T13:45:08.291Z,102415.47
2022-12-04T13:49:26.193Z,102413.60
2022-12-04T13:53:38.042Z,102415.08
2022-12-04T13:57:40.834Z,102423.44
2022-12-04T14:01:45.739Z,102420.58
2022-12-04T14:05:46.093Z,102423.80
2022-12-04T14:10:04.893Z,102416.77
2022-12-04T14:14:26.951Z,102419.64
2022-12-04T14:18:30.350Z,102418.04
2022-12-04T14:22:38.048Z,102418.58
2022-12-04T14:27:10.700Z,102415.20
2022-12-04T14:31:33.476Z,102408.02
2022-12-04T14:35:34.171Z,102407.69
2022-12-04T14:39:43.844Z,102407.30
2022-12-04T14:43:45.764Z,102403.23
2022-12-04T14:48:27.517Z,102396.20
2022-12-04T14:51:35.425Z,102399.63
2022-12-04T14:55:52.261Z,102406.60
2022-12-04T14:59:54.125Z,102403.90
2022-12-04T15:03:57.494Z,102409.77
2022-12-04T15:08:16.016Z,102415.36
2022-12-04T15:11:53.424Z,102417.07
2022-12-04T15:15:53.049Z,102418.35
2022-12-04T15:19:54.925Z,102416.92
2022-12-04T15:23:37.481Z,102418.84
2022-12-04T15:27:37.335Z,102420.65
2022-12-04T15:31:47.181Z,102422.68
2022-12-04T15:36:12.661Z,102420.42
2022-12-04T15:40:22.945Z,102417.20
2022-12-04T15:44:32.156Z,102408.59
2022-12-04T15:48:31.714Z,102407.25
2022-12-04T15:52:31.735Z,102399.84
2022-12-04T15:56:45.383Z,102395.36
2022-12-04T16:00:44.958Z,102399.23
2022-12-04T16:04:45.695Z,102403.40
2022-12-04T16:08:48.093Z,102403.75
2022-12-04T16:13:05.806Z,102410.73
2022-12-04T16:17:06.565Z,102404.94
2022-12-04T16:21:14.747Z,102402.91
2022-12-04T16:25:15.336Z,102402.16
2022-12-04T16:29:15.345Z,102408.42
2022-12-04T16:33:16.144Z,102399.77
2022-12-04T16:37:20.986Z,102394.52
2022-12-04T16:41:34.498Z,102385.89
2022-12-04T16:45:35.639Z,102381.11
2022-12-04T16:49:35.025Z,102374.92
2022-12-04T16:53:34.745Z,102372.35
2022-12-04T16:57:34.919Z,102377.42
2022-12-04T17:01:38.919Z,102371.20
2022-12-04T17:05:38.695Z,102366.58
2022-12-04T17:09:38.228Z,102365.64
2022-12-04T17:13:56.800Z,102367.88
2022-12-04T17:17:15.540Z,102374.28
2022-12-04T17:21:28.584Z,102383.81
2022-12-04T17:25:28.192Z,102397.33
2022-12-04T17:29:27.345Z,102396.67
2022-12-04T17:33:27.151Z,102405.08
2022-12-04T17:37:26.801Z,102409.65
2022-12-04T17:41:26.445Z,102408.00
2022-12-04T17:45:26.237Z,102406.81
2022-12-04T17:49:26.173Z,102408.23
2022-12-04T17:53:25.854Z,102408.77
2022-12-04T17:57:25.770Z,102410.12
2022-12-04T18:01:29.893Z,102413.07
2022-12-04T18:05:30.012Z,102414.36
2022-12-04T18:09:30.117Z,102413.48
2022-12-04T18:13:29.251Z,102419.33
2022-12-04T18:17:28.854Z,102417.58
2022-12-04T18:21:31.891Z,102411.65
2022-12-04T18:25:31.745Z,102406.66
2022-12-04T18:29:31.935Z,102401.83
2022-12-04T18:33:33.169Z,102403.08
2022-12-04T18:37:34.415Z,102404.83
2022-12-04T18:41:33.969Z,102402.42
2022-12-04T18:45:33.905Z,102401.42
2022-12-04T18:49:33.525Z,102404.89
2022-12-04T18:53:33.165Z,102403.02
2022-12-04T18:57:33.293Z,102401.41
2022-12-04T19:01:33.167Z,102401.75
2022-12-04T19:05:33.482Z,102406.56
2022-12-04T19:10:08.796Z,102409.43
2022-12-04T19:13:51.997Z,102405.77
2022-12-04T19:17:51.927Z,102412.37
2022-12-04T19:21:51.437Z,102412.61
2022-12-04T19:25:58.569Z,102410.36
2022-12-04T19:29:58.458Z,102410.96
2022-12-04T19:33:58.985Z,102411.80
2022-12-04T19:37:58.559Z,102409.00
2022-12-04T19:41:58.333Z,102408.13
2022-12-04T19:45:57.964Z,102418.64
2022-12-04T19:49:58.029Z,102427.48
2022-12-04T19:53:57.811Z,102426.38
2022-12-04T19:57:56.858Z,102429.46
2022-12-04T20:01:56.466Z,102426.15
2022-12-04T20:05:56.622Z,102423.33
2022-12-04T20:09:56.312Z,102424.88
2022-12-04T20:13:59.998Z,102429.83
2022-12-04T20:17:59.390Z,102424.05
2022-12-04T20:21:59.693Z,102420.62
2022-12-04T20:26:04.893Z,102418.08
2022-12-04T20:30:04.464Z,102421.92
2022-12-04T20:34:06.955Z,102422.91
2022-12-04T20:38:06.595Z,102419.63
2022-12-04T20:42:05.657Z,102414.52
2022-12-04T20:46:16.279Z,102421.66
2022-12-04T20:50:16.215Z,102425.85
2022-12-04T20:54:20.564Z,102427.94
2022-12-04T20:58:20.785Z,102432.53
2022-12-04T21:02:20.708Z,102428.58
2022-12-04T21:06:29.708Z,102424.14
2022-12-04T21:10:33.120Z,102422.25
2022-12-04T21:15:05.110Z,102431.21
2022-12-04T21:19:06.130Z,102421.34
2022-12-04T21:23:05.541Z,102418.27
2022-12-04T21:27:09.333Z,102418.14
2022-12-04T21:31:09.004Z,102419.08
2022-12-04T21:35:08.723Z,102418.15
2022-12-04T21:39:08.964Z,102418.61
2022-12-04T21:43:07.786Z,102421.08
2022-12-04T21:47:06.950Z,102421.23
2022-12-04T21:51:21.198Z,102415.79
2022-12-04T21:55:26.394Z,102413.64
2022-12-04T21:59:26.135Z,102410.52
2022-12-04T22:03:25.522Z,102409.83
2022-12-04T22:07:25.272Z,102406.15
2022-12-04T22:11:41.593Z,102411.27
2022-12-04T22:15:44.827Z,102415.44
2022-12-04T22:19:44.595Z,102413.96
2022-12-04T22:23:44.430Z,102411.77
2022-12-04T22:27:43.403Z,102418.10
2022-12-04T22:31:43.264Z,102411.16
2022-12-04T22:35:42.334Z,102405.38
2022-12-04T22:39:41.735Z,102401.54
2022-12-04T22:43:41.585Z,102401.12
2022-12-04T22:47:40.993Z,102402.61
2022-12-04T22:51:40.364Z,102396.30
2022-12-04T22:55:40.345Z,102399.48
2022-12-04T23:00:13.145Z,102396.75
2022-12-04T23:03:32.759Z,102394.27
2022-12-04T23:07:51.402Z,102396.60
2022-12-04T23:11:15.949Z,102395.80
2022-12-04T23:15:14.933Z,102391.44
2022-12-04T23:19:16.890Z,102395.96
2022-12-04T23:23:16.134Z,102389.69
2022-12-04T23:27:15.293Z,102390.66
2022-12-04T23:31:15.815Z,102394.95
2022-12-04T23:35:15.474Z,102391.98
2022-12-04T23:39:14.470Z,102393.83
2022-12-04T23:43:14.099Z,102393.61
2022-12-04T23:47:13.150Z,102400.30
2022-12-04T23:51:15.444Z,102395.00
2022-12-04T23:55:14.354Z,102392.04
2022-12-04T23:59:13.530Z,102388.27
